sensor_id;sensor_type;location;lat;lon;timestamp;P1;durP1;ratioP1;P2;durP2;ratioP2
52534;SDS011;38443;53.164;5.802;2023-05-10T00:01:51;12.90;;;9.25;;
52534;SDS011;38443;53.164;5.802;2023-05-10T00:04:17;10.68;;;8.35;;
52534;SDS011;38443;53.164;5.802;2023-05-10T00:06:42;9.65;;;7.68;;
52534;SDS011;38443;53.164;5.802;2023-05-10T00:09:07;9.32;;;6.97;;
52534;SDS011;38443;53.164;5.802;2023-05-10T00:11:32;7.10;;;5.60;;
52534;SDS011;38443;53.164;5.802;2023-05-10T00:13:58;5.30;;;4.65;;
52534;SDS011;38443;53.164;5.802;2023-05-10T00:16:23;5.63;;;4.22;;
52534;SDS011;38443;53.164;5.802;2023-05-10T00:18:48;4.03;;;3.10;;
52534;SDS011;38443;53.164;5.802;2023-05-10T00:21:14;4.47;;;3.72;;
52534;SDS011;38443;53.164;5.802;2023-05-10T00:23:39;4.32;;;3.80;;
52534;SDS011;38443;53.164;5.802;2023-05-10T00:26:05;4.35;;;3.45;;
52534;SDS011;38443;53.164;5.802;2023-05-10T00:28:30;5.35;;;3.80;;
52534;SDS011;38443;53.164;5.802;2023-05-10T00:30:55;5.70;;;4.57;;
52534;SDS011;38443;53.164;5.802;2023-05-10T00:33:21;6.30;;;4.80;;
52534;SDS011;38443;53.164;5.802;2023-05-10T00:35:46;7.53;;;4.72;;
52534;SDS011;38443;53.164;5.802;2023-05-10T00:38:12;8.52;;;5.55;;
52534;SDS011;38443;53.164;5.802;2023-05-10T00:40:37;7.50;;;5.65;;
52534;SDS011;38443;53.164;5.802;2023-05-10T00:43:03;7.57;;;5.72;;
52534;SDS011;38443;53.164;5.802;2023-05-10T00:45:28;8.20;;;6.45;;
52534;SDS011;38443;53.164;5.802;2023-05-10T00:47:56;9.23;;;6.55;;
52534;SDS011;38443;53.164;5.802;2023-05-10T00:50:21;13.38;;;8.50;;
52534;SDS011;38443;53.164;5.802;2023-05-10T00:52:48;13.15;;;8.70;;
52534;SDS011;38443;53.164;5.802;2023-05-10T00:55:14;16.55;;;10.48;;
52534;SDS011;38443;53.164;5.802;2023-05-10T00:57:39;16.63;;;11.52;;
52534;SDS011;38443;53.164;5.802;2023-05-10T01:00:05;18.67;;;12.57;;
52534;SDS011;38443;53.164;5.802;2023-05-10T01:02:31;19.10;;;12.63;;
52534;SDS011;38443;53.164;5.802;2023-05-10T01:04:58;17.83;;;12.27;;
52534;SDS011;38443;53.164;5.802;2023-05-10T01:07:24;16.65;;;11.75;;
52534;SDS011;38443;53.164;5.802;2023-05-10T01:09:50;16.95;;;11.93;;
52534;SDS011;38443;53.164;5.802;2023-05-10T01:12:15;19.38;;;11.90;;
52534;SDS011;38443;53.164;5.802;2023-05-10T01:14:41;17.85;;;11.98;;
52534;SDS011;38443;53.164;5.802;2023-05-10T01:17:07;16.38;;;11.52;;
52534;SDS011;38443;53.164;5.802;2023-05-10T01:19:34;21.60;;;12.38;;
52534;SDS011;38443;53.164;5.802;2023-05-10T01:22:04;18.02;;;12.38;;
52534;SDS011;38443;53.164;5.802;2023-05-10T01:35:52;25.23;;;15.90;;
52534;SDS011;38443;53.164;5.802;2023-05-10T01:46:44;31.77;;;17.15;;
52534;SDS011;38443;53.164;5.802;2023-05-10T01:49:20;35.17;;;17.83;;
52534;SDS011;38443;53.164;5.802;2023-05-10T01:51:52;39.10;;;18.83;;
52534;SDS011;38443;53.164;5.802;2023-05-10T01:54:20;32.75;;;16.77;;
52534;SDS011;38443;53.164;5.802;2023-05-10T01:56:52;38.65;;;18.52;;
52534;SDS011;38443;53.164;5.802;2023-05-10T01:59:24;39.05;;;20.08;;
52534;SDS011;38443;53.164;5.802;2023-05-10T02:01:54;38.72;;;19.15;;
52534;SDS011;38443;53.164;5.802;2023-05-10T02:04:23;31.67;;;18.33;;
52534;SDS011;38443;53.164;5.802;2023-05-10T02:06:50;35.13;;;17.08;;
52534;SDS011;38443;53.164;5.802;2023-05-10T02:09:17;38.53;;;18.23;;
52534;SDS011;38443;53.164;5.802;2023-05-10T02:11:45;34.63;;;17.48;;
52534;SDS011;38443;53.164;5.802;2023-05-10T02:14:14;31.90;;;16.88;;
52534;SDS011;38443;53.164;5.802;2023-05-10T02:16:41;34.33;;;16.33;;
52534;SDS011;38443;53.164;5.802;2023-05-10T02:19:08;37.03;;;17.00;;
52534;SDS011;38443;53.164;5.802;2023-05-10T02:21:37;32.17;;;17.00;;
52534;SDS011;38443;53.164;5.802;2023-05-10T02:24:05;32.40;;;17.13;;
52534;SDS011;38443;53.164;5.802;2023-05-10T02:26:32;30.70;;;15.93;;
52534;SDS011;38443;53.164;5.802;2023-05-10T02:29:00;25.20;;;15.20;;
52534;SDS011;38443;53.164;5.802;2023-05-10T02:31:28;22.67;;;14.80;;
52534;SDS011;38443;53.164;5.802;2023-05-10T02:33:55;23.73;;;14.25;;
52534;SDS011;38443;53.164;5.802;2023-05-10T02:36:23;23.88;;;14.18;;
52534;SDS011;38443;53.164;5.802;2023-05-10T02:38:49;21.48;;;13.82;;
52534;SDS011;38443;53.164;5.802;2023-05-10T02:41:17;21.05;;;13.57;;
52534;SDS011;38443;53.164;5.802;2023-05-10T02:43:46;17.38;;;11.38;;
52534;SDS011;38443;53.164;5.802;2023-05-10T02:46:13;14.68;;;10.65;;
52534;SDS011;38443;53.164;5.802;2023-05-10T02:48:39;11.65;;;9.05;;
52534;SDS011;38443;53.164;5.802;2023-05-10T02:51:05;12.00;;;8.60;;
52534;SDS011;38443;53.164;5.802;2023-05-10T02:53:33;10.05;;;7.85;;
52534;SDS011;38443;53.164;5.802;2023-05-10T02:56:01;9.45;;;7.18;;
52534;SDS011;38443;53.164;5.802;2023-05-10T02:58:32;7.18;;;5.85;;
52534;SDS011;38443;53.164;5.802;2023-05-10T03:00:59;6.30;;;5.03;;
52534;SDS011;38443;53.164;5.802;2023-05-10T03:03:25;5.80;;;4.38;;
52534;SDS011;38443;53.164;5.802;2023-05-10T03:05:50;4.13;;;3.53;;
52534;SDS011;38443;53.164;5.802;2023-05-10T03:08:18;3.58;;;3.17;;
52534;SDS011;38443;53.164;5.802;2023-05-10T03:10:54;4.07;;;3.25;;
52534;SDS011;38443;53.164;5.802;2023-05-10T03:13:36;3.45;;;3.10;;
52534;SDS011;38443;53.164;5.802;2023-05-10T03:16:27;3.50;;;2.92;;
52534;SDS011;38443;53.164;5.802;2023-05-10T03:19:06;2.67;;;2.20;;
52534;SDS011;38443;53.164;5.802;2023-05-10T03:21:41;2.72;;;2.28;;
52534;SDS011;38443;53.164;5.802;2023-05-10T03:24:12;3.40;;;2.72;;
52534;SDS011;38443;53.164;5.802;2023-05-10T03:26:40;2.90;;;2.50;;
52534;SDS011;38443;53.164;5.802;2023-05-10T03:29:09;2.65;;;2.30;;
52534;SDS011;38443;53.164;5.802;2023-05-10T03:31:36;2.70;;;2.28;;
52534;SDS011;38443;53.164;5.802;2023-05-10T03:34:03;2.58;;;2.33;;
52534;SDS011;38443;53.164;5.802;2023-05-10T03:36:28;2.97;;;2.30;;
52534;SDS011;38443;53.164;5.802;2023-05-10T03:38:54;2.92;;;2.50;;
52534;SDS011;38443;53.164;5.802;2023-05-10T03:41:19;3.47;;;2.60;;
52534;SDS011;38443;53.164;5.802;2023-05-10T03:43:45;3.42;;;2.72;;
52534;SDS011;38443;53.164;5.802;2023-05-10T03:46:10;3.75;;;2.47;;
52534;SDS011;38443;53.164;5.802;2023-05-10T03:48:36;2.70;;;2.40;;
52534;SDS011;38443;53.164;5.802;2023-05-10T03:51:01;2.53;;;2.33;;
52534;SDS011;38443;53.164;5.802;2023-05-10T03:53:27;4.70;;;2.58;;
52534;SDS011;38443;53.164;5.802;2023-05-10T03:55:52;2.55;;;2.30;;
52534;SDS011;38443;53.164;5.802;2023-05-10T03:58:18;2.80;;;2.50;;
52534;SDS011;38443;53.164;5.802;2023-05-10T04:00:43;2.65;;;2.28;;
52534;SDS011;38443;53.164;5.802;2023-05-10T04:03:10;2.90;;;2.60;;
52534;SDS011;38443;53.164;5.802;2023-05-10T04:05:36;2.67;;;2.22;;
52534;SDS011;38443;53.164;5.802;2023-05-10T04:08:02;2.88;;;2.50;;
52534;SDS011;38443;53.164;5.802;2023-05-10T04:10:27;3.00;;;2.70;;
52534;SDS011;38443;53.164;5.802;2023-05-10T04:12:53;3.42;;;2.60;;
52534;SDS011;38443;53.164;5.802;2023-05-10T04:15:18;3.20;;;2.53;;
52534;SDS011;38443;53.164;5.802;2023-05-10T04:17:44;3.15;;;2.58;;
52534;SDS011;38443;53.164;5.802;2023-05-10T04:20:09;3.60;;;3.00;;
52534;SDS011;38443;53.164;5.802;2023-05-10T04:22:35;3.00;;;2.53;;
52534;SDS011;38443;53.164;5.802;2023-05-10T04:25:00;3.35;;;2.63;;
52534;SDS011;38443;53.164;5.802;2023-05-10T04:27:26;3.63;;;2.83;;
52534;SDS011;38443;53.164;5.802;2023-05-10T04:29:52;4.75;;;3.25;;
52534;SDS011;38443;53.164;5.802;2023-05-10T04:32:17;3.80;;;3.10;;
52534;SDS011;38443;53.164;5.802;2023-05-10T04:34:43;5.15;;;3.20;;
52534;SDS011;38443;53.164;5.802;2023-05-10T04:37:08;4.38;;;3.35;;
52534;SDS011;38443;53.164;5.802;2023-05-10T04:39:34;4.72;;;3.85;;
52534;SDS011;38443;53.164;5.802;2023-05-10T04:42:00;5.38;;;4.43;;
52534;SDS011;38443;53.164;5.802;2023-05-10T04:44:27;5.80;;;4.82;;
52534;SDS011;38443;53.164;5.802;2023-05-10T04:46:53;7.53;;;5.25;;
52534;SDS011;38443;53.164;5.802;2023-05-10T04:49:18;6.63;;;5.07;;
52534;SDS011;38443;53.164;5.802;2023-05-10T04:51:44;7.35;;;5.30;;
52534;SDS011;38443;53.164;5.802;2023-05-10T04:54:09;9.55;;;6.82;;
52534;SDS011;38443;53.164;5.802;2023-05-10T04:56:35;7.72;;;6.05;;
52534;SDS011;38443;53.164;5.802;2023-05-10T04:59:00;10.05;;;7.40;;
52534;SDS011;38443;53.164;5.802;2023-05-10T05:01:26;10.77;;;7.03;;
52534;SDS011;38443;53.164;5.802;2023-05-10T05:03:51;8.23;;;6.38;;
52534;SDS011;38443;53.164;5.802;2023-05-10T05:06:17;11.15;;;7.07;;
52534;SDS011;38443;53.164;5.802;2023-05-10T05:08:43;9.10;;;6.95;;
52534;SDS011;38443;53.164;5.802;2023-05-10T05:11:08;9.57;;;6.65;;
52534;SDS011;38443;53.164;5.802;2023-05-10T05:13:34;10.30;;;6.30;;
52534;SDS011;38443;53.164;5.802;2023-05-10T05:16:00;8.82;;;5.60;;
52534;SDS011;38443;53.164;5.802;2023-05-10T05:18:26;9.60;;;5.18;;
52534;SDS011;38443;53.164;5.802;2023-05-10T05:20:51;7.93;;;4.68;;
52534;SDS011;38443;53.164;5.802;2023-05-10T05:23:17;8.93;;;4.63;;
52534;SDS011;38443;53.164;5.802;2023-05-10T05:25:43;6.85;;;4.45;;
52534;SDS011;38443;53.164;5.802;2023-05-10T05:28:08;8.68;;;4.63;;
52534;SDS011;38443;53.164;5.802;2023-05-10T05:30:34;6.63;;;4.28;;
52534;SDS011;38443;53.164;5.802;2023-05-10T05:32:59;7.25;;;4.65;;
52534;SDS011;38443;53.164;5.802;2023-05-10T05:35:24;7.38;;;4.63;;
52534;SDS011;38443;53.164;5.802;2023-05-10T05:37:50;5.70;;;4.13;;
52534;SDS011;38443;53.164;5.802;2023-05-10T05:40:15;5.40;;;3.92;;
52534;SDS011;38443;53.164;5.802;2023-05-10T05:42:40;5.45;;;4.05;;
52534;SDS011;38443;53.164;5.802;2023-05-10T05:45:09;5.57;;;3.20;;
52534;SDS011;38443;53.164;5.802;2023-05-10T05:47:37;7.28;;;3.92;;
52534;SDS011;38443;53.164;5.802;2023-05-10T05:50:03;7.43;;;4.50;;
52534;SDS011;38443;53.164;5.802;2023-05-10T05:52:29;9.82;;;4.75;;
52534;SDS011;38443;53.164;5.802;2023-05-10T05:54:55;8.48;;;5.07;;
52534;SDS011;38443;53.164;5.802;2023-05-10T05:57:20;7.45;;;4.97;;
52534;SDS011;38443;53.164;5.802;2023-05-10T05:59:45;10.02;;;5.78;;
52534;SDS011;38443;53.164;5.802;2023-05-10T06:02:11;7.43;;;4.72;;
52534;SDS011;38443;53.164;5.802;2023-05-10T06:04:36;7.15;;;5.28;;
52534;SDS011;38443;53.164;5.802;2023-05-10T06:07:02;7.63;;;5.50;;
52534;SDS011;38443;53.164;5.802;2023-05-10T06:09:27;7.57;;;5.18;;
52534;SDS011;38443;53.164;5.802;2023-05-10T06:11:52;8.43;;;5.30;;
52534;SDS011;38443;53.164;5.802;2023-05-10T06:14:19;7.40;;;5.13;;
52534;SDS011;38443;53.164;5.802;2023-05-10T06:16:45;10.27;;;5.53;;
52534;SDS011;38443;53.164;5.802;2023-05-10T06:19:10;8.95;;;5.80;;
52534;SDS011;38443;53.164;5.802;2023-05-10T06:21:36;8.55;;;5.55;;
52534;SDS011;38443;53.164;5.802;2023-05-10T06:24:01;7.10;;;4.43;;
52534;SDS011;38443;53.164;5.802;2023-05-10T06:26:27;10.05;;;5.68;;
52534;SDS011;38443;53.164;5.802;2023-05-10T06:28:53;10.82;;;6.28;;
52534;SDS011;38443;53.164;5.802;2023-05-10T06:31:18;11.50;;;7.00;;
52534;SDS011;38443;53.164;5.802;2023-05-10T06:33:43;11.32;;;6.55;;
52534;SDS011;38443;53.164;5.802;2023-05-10T06:36:09;10.63;;;6.80;;
52534;SDS011;38443;53.164;5.802;2023-05-10T06:38:34;9.00;;;5.30;;
52534;SDS011;38443;53.164;5.802;2023-05-10T06:40:59;9.95;;;5.07;;
52534;SDS011;38443;53.164;5.802;2023-05-10T06:43:25;8.35;;;4.55;;
52534;SDS011;38443;53.164;5.802;2023-05-10T06:45:51;8.18;;;4.57;;
52534;SDS011;38443;53.164;5.802;2023-05-10T06:48:16;9.02;;;5.32;;
52534;SDS011;38443;53.164;5.802;2023-05-10T06:50:42;9.75;;;5.40;;
52534;SDS011;38443;53.164;5.802;2023-05-10T06:53:07;9.68;;;5.85;;
52534;SDS011;38443;53.164;5.802;2023-05-10T06:55:33;8.80;;;5.43;;
52534;SDS011;38443;53.164;5.802;2023-05-10T06:57:58;9.07;;;5.60;;
52534;SDS011;38443;53.164;5.802;2023-05-10T07:00:24;7.90;;;5.10;;
52534;SDS011;38443;53.164;5.802;2023-05-10T07:02:49;8.65;;;4.75;;
52534;SDS011;38443;53.164;5.802;2023-05-10T07:05:14;11.60;;;4.68;;
52534;SDS011;38443;53.164;5.802;2023-05-10T07:07:40;9.45;;;4.55;;
52534;SDS011;38443;53.164;5.802;2023-05-10T07:10:05;9.93;;;4.90;;
52534;SDS011;38443;53.164;5.802;2023-05-10T07:12:32;7.45;;;4.10;;
52534;SDS011;38443;53.164;5.802;2023-05-10T07:14:57;6.63;;;4.40;;
52534;SDS011;38443;53.164;5.802;2023-05-10T07:17:23;5.93;;;4.13;;
52534;SDS011;38443;53.164;5.802;2023-05-10T07:19:48;6.80;;;3.55;;
52534;SDS011;38443;53.164;5.802;2023-05-10T07:22:14;7.43;;;4.88;;
52534;SDS011;38443;53.164;5.802;2023-05-10T07:24:40;6.80;;;3.53;;
52534;SDS011;38443;53.164;5.802;2023-05-10T07:27:05;6.75;;;4.03;;
52534;SDS011;38443;53.164;5.802;2023-05-10T07:29:31;6.47;;;4.07;;
52534;SDS011;38443;53.164;5.802;2023-05-10T07:31:56;6.53;;;3.92;;
52534;SDS011;38443;53.164;5.802;2023-05-10T07:34:21;6.55;;;3.88;;
52534;SDS011;38443;53.164;5.802;2023-05-10T07:36:47;10.05;;;4.18;;
52534;SDS011;38443;53.164;5.802;2023-05-10T07:39:12;7.32;;;4.55;;
52534;SDS011;38443;53.164;5.802;2023-05-10T07:41:37;7.03;;;4.30;;
52534;SDS011;38443;53.164;5.802;2023-05-10T07:44:03;7.10;;;4.50;;
52534;SDS011;38443;53.164;5.802;2023-05-10T07:46:30;9.18;;;5.53;;
52534;SDS011;38443;53.164;5.802;2023-05-10T07:48:55;9.40;;;5.43;;
52534;SDS011;38443;53.164;5.802;2023-05-10T07:51:20;8.75;;;5.03;;
52534;SDS011;38443;53.164;5.802;2023-05-10T07:53:46;6.88;;;4.45;;
52534;SDS011;38443;53.164;5.802;2023-05-10T07:56:24;8.18;;;5.03;;
52534;SDS011;38443;53.164;5.802;2023-05-10T07:58:55;7.25;;;4.97;;
52534;SDS011;38443;53.164;5.802;2023-05-10T08:01:21;8.73;;;5.07;;
52534;SDS011;38443;53.164;5.802;2023-05-10T08:03:47;8.10;;;5.32;;
52534;SDS011;38443;53.164;5.802;2023-05-10T08:06:14;8.50;;;5.07;;
52534;SDS011;38443;53.164;5.802;2023-05-10T08:08:40;12.15;;;5.50;;
52534;SDS011;38443;53.164;5.802;2023-05-10T08:11:06;9.27;;;4.90;;
52534;SDS011;38443;53.164;5.802;2023-05-10T08:13:31;9.70;;;5.72;;
52534;SDS011;38443;53.164;5.802;2023-05-10T08:15:56;9.02;;;5.65;;
52534;SDS011;38443;53.164;5.802;2023-05-10T08:18:22;8.77;;;5.20;;
52534;SDS011;38443;53.164;5.802;2023-05-10T08:20:47;7.82;;;5.25;;
52534;SDS011;38443;53.164;5.802;2023-05-10T08:23:13;8.65;;;5.00;;
52534;SDS011;38443;53.164;5.802;2023-05-10T08:25:38;6.43;;;4.03;;
52534;SDS011;38443;53.164;5.802;2023-05-10T08:28:04;7.13;;;4.20;;
52534;SDS011;38443;53.164;5.802;2023-05-10T08:30:29;6.82;;;4.35;;
52534;SDS011;38443;53.164;5.802;2023-05-10T08:32:55;9.63;;;4.78;;
52534;SDS011;38443;53.164;5.802;2023-05-10T08:35:20;9.25;;;4.47;;
52534;SDS011;38443;53.164;5.802;2023-05-10T08:37:45;6.65;;;4.80;;
52534;SDS011;38443;53.164;5.802;2023-05-10T08:40:11;8.23;;;4.75;;
52534;SDS011;38443;53.164;5.802;2023-05-10T08:42:36;8.25;;;4.32;;
52534;SDS011;38443;53.164;5.802;2023-05-10T08:45:05;7.63;;;4.30;;
52534;SDS011;38443;53.164;5.802;2023-05-10T08:47:32;11.65;;;4.95;;
52534;SDS011;38443;53.164;5.802;2023-05-10T08:50:00;9.77;;;4.85;;
52534;SDS011;38443;53.164;5.802;2023-05-10T08:52:27;9.05;;;5.50;;
52534;SDS011;38443;53.164;5.802;2023-05-10T08:54:54;8.70;;;5.97;;
52534;SDS011;38443;53.164;5.802;2023-05-10T08:57:20;9.52;;;5.65;;
52534;SDS011;38443;53.164;5.802;2023-05-10T08:59:46;11.98;;;7.35;;
52534;SDS011;38443;53.164;5.802;2023-05-10T09:02:11;12.10;;;7.13;;
52534;SDS011;38443;53.164;5.802;2023-05-10T09:04:38;13.40;;;7.13;;
52534;SDS011;38443;53.164;5.802;2023-05-10T09:07:03;11.40;;;6.00;;
52534;SDS011;38443;53.164;5.802;2023-05-10T09:09:29;12.32;;;6.22;;
52534;SDS011;38443;53.164;5.802;2023-05-10T09:11:54;11.02;;;5.75;;
52534;SDS011;38443;53.164;5.802;2023-05-10T09:14:20;9.90;;;6.25;;
52534;SDS011;38443;53.164;5.802;2023-05-10T09:16:48;12.45;;;7.20;;
52534;SDS011;38443;53.164;5.802;2023-05-10T09:19:13;12.00;;;6.93;;
52534;SDS011;38443;53.164;5.802;2023-05-10T09:21:38;13.07;;;6.85;;
52534;SDS011;38443;53.164;5.802;2023-05-10T09:24:08;12.07;;;7.68;;
52534;SDS011;38443;53.164;5.802;2023-05-10T09:26:34;13.40;;;7.30;;
52534;SDS011;38443;53.164;5.802;2023-05-10T09:29:00;11.52;;;7.47;;
52534;SDS011;38443;53.164;5.802;2023-05-10T09:34:29;10.57;;;5.65;;
52534;SDS011;38443;53.164;5.802;2023-05-10T09:36:58;11.75;;;6.90;;
52534;SDS011;38443;53.164;5.802;2023-05-10T09:39:37;10.35;;;5.80;;
52534;SDS011;38443;53.164;5.802;2023-05-10T09:42:04;8.98;;;5.75;;
52534;SDS011;38443;53.164;5.802;2023-05-10T09:44:31;9.30;;;6.47;;
52534;SDS011;38443;53.164;5.802;2023-05-10T09:46:57;9.00;;;5.30;;
52534;SDS011;38443;53.164;5.802;2023-05-10T09:49:23;8.55;;;5.70;;
52534;SDS011;38443;53.164;5.802;2023-05-10T09:52:05;10.52;;;5.22;;
52534;SDS011;38443;53.164;5.802;2023-05-10T09:54:31;8.60;;;5.15;;
52534;SDS011;38443;53.164;5.802;2023-05-10T09:56:57;11.85;;;5.60;;
52534;SDS011;38443;53.164;5.802;2023-05-10T09:59:24;10.55;;;5.20;;
52534;SDS011;38443;53.164;5.802;2023-05-10T10:01:52;8.63;;;5.85;;
52534;SDS011;38443;53.164;5.802;2023-05-10T10:04:20;9.40;;;5.78;;
52534;SDS011;38443;53.164;5.802;2023-05-10T10:06:46;7.00;;;4.70;;
52534;SDS011;38443;53.164;5.802;2023-05-10T10:09:23;10.20;;;5.25;;
52534;SDS011;38443;53.164;5.802;2023-05-10T10:11:49;8.40;;;5.00;;
52534;SDS011;38443;53.164;5.802;2023-05-10T10:14:16;9.88;;;5.35;;
52534;SDS011;38443;53.164;5.802;2023-05-10T10:16:43;10.15;;;6.13;;
52534;SDS011;38443;53.164;5.802;2023-05-10T10:19:09;10.88;;;6.50;;
52534;SDS011;38443;53.164;5.802;2023-05-10T10:21:35;11.60;;;6.82;;
52534;SDS011;38443;53.164;5.802;2023-05-10T10:24:00;11.10;;;6.90;;
52534;SDS011;38443;53.164;5.802;2023-05-10T10:26:26;12.13;;;7.63;;
52534;SDS011;38443;53.164;5.802;2023-05-10T10:29:09;9.15;;;6.00;;
52534;SDS011;38443;53.164;5.802;2023-05-10T10:31:37;9.15;;;5.60;;
52534;SDS011;38443;53.164;5.802;2023-05-10T10:34:07;8.50;;;6.13;;
52534;SDS011;38443;53.164;5.802;2023-05-10T10:36:44;7.28;;;5.45;;
52534;SDS011;38443;53.164;5.802;2023-05-10T10:39:11;9.20;;;6.13;;
52534;SDS011;38443;53.164;5.802;2023-05-10T10:41:38;12.38;;;6.90;;
52534;SDS011;38443;53.164;5.802;2023-05-10T10:49:38;10.77;;;5.95;;
52534;SDS011;38443;53.164;5.802;2023-05-10T10:52:24;11.13;;;6.13;;
52534;SDS011;38443;53.164;5.802;2023-05-10T10:57:26;9.35;;;5.88;;
52534;SDS011;38443;53.164;5.802;2023-05-10T11:02:52;12.82;;;6.10;;
52534;SDS011;38443;53.164;5.802;2023-05-10T11:08:06;9.18;;;5.38;;
52534;SDS011;38443;53.164;5.802;2023-05-10T11:13:32;11.30;;;6.05;;
52534;SDS011;38443;53.164;5.802;2023-05-10T11:16:09;9.40;;;6.18;;
52534;SDS011;38443;53.164;5.802;2023-05-10T11:18:58;10.52;;;6.43;;
52534;SDS011;38443;53.164;5.802;2023-05-10T11:21:27;13.98;;;8.32;;
52534;SDS011;38443;53.164;5.802;2023-05-10T11:23:53;9.30;;;5.65;;
52534;SDS011;38443;53.164;5.802;2023-05-10T11:26:23;11.85;;;7.03;;
52534;SDS011;38443;53.164;5.802;2023-05-10T11:28:51;9.52;;;6.28;;
52534;SDS011;38443;53.164;5.802;2023-05-10T11:31:19;15.93;;;6.75;;
52534;SDS011;38443;53.164;5.802;2023-05-10T11:33:46;7.50;;;5.05;;
52534;SDS011;38443;53.164;5.802;2023-05-10T11:36:17;7.43;;;4.80;;
52534;SDS011;38443;53.164;5.802;2023-05-10T11:38:44;7.90;;;5.20;;
52534;SDS011;38443;53.164;5.802;2023-05-10T11:41:10;7.90;;;5.25;;
52534;SDS011;38443;53.164;5.802;2023-05-10T11:43:38;8.18;;;5.68;;
52534;SDS011;38443;53.164;5.802;2023-05-10T11:46:07;7.80;;;5.53;;
52534;SDS011;38443;53.164;5.802;2023-05-10T11:48:35;8.73;;;5.45;;
52534;SDS011;38443;53.164;5.802;2023-05-10T11:51:01;9.40;;;5.45;;
52534;SDS011;38443;53.164;5.802;2023-05-10T11:53:28;8.20;;;5.07;;
52534;SDS011;38443;53.164;5.802;2023-05-10T11:55:55;8.13;;;5.18;;
52534;SDS011;38443;53.164;5.802;2023-05-10T11:58:20;9.98;;;5.72;;
52534;SDS011;38443;53.164;5.802;2023-05-10T12:00:46;9.40;;;5.93;;
52534;SDS011;38443;53.164;5.802;2023-05-10T12:03:13;8.02;;;5.40;;
52534;SDS011;38443;53.164;5.802;2023-05-10T12:05:38;9.02;;;6.00;;
52534;SDS011;38443;53.164;5.802;2023-05-10T12:08:13;9.40;;;6.05;;
52534;SDS011;38443;53.164;5.802;2023-05-10T12:10:45;9.13;;;5.95;;
52534;SDS011;38443;53.164;5.802;2023-05-10T12:13:10;9.02;;;6.00;;
52534;SDS011;38443;53.164;5.802;2023-05-10T12:15:39;12.32;;;7.00;;
52534;SDS011;38443;53.164;5.802;2023-05-10T12:18:05;9.85;;;6.22;;
52534;SDS011;38443;53.164;5.802;2023-05-10T12:20:31;9.93;;;6.45;;
52534;SDS011;38443;53.164;5.802;2023-05-10T12:22:57;11.07;;;6.55;;
52534;SDS011;38443;53.164;5.802;2023-05-10T12:25:32;11.70;;;6.50;;
52534;SDS011;38443;53.164;5.802;2023-05-10T12:27:59;9.85;;;5.55;;
52534;SDS011;38443;53.164;5.802;2023-05-10T12:30:29;11.73;;;6.70;;
52534;SDS011;38443;53.164;5.802;2023-05-10T12:33:06;11.13;;;6.25;;
52534;SDS011;38443;53.164;5.802;2023-05-10T12:35:43;12.82;;;7.03;;
52534;SDS011;38443;53.164;5.802;2023-05-10T12:38:26;10.40;;;7.20;;
52534;SDS011;38443;53.164;5.802;2023-05-10T12:40:51;10.98;;;5.70;;
52534;SDS011;38443;53.164;5.802;2023-05-10T12:43:17;11.20;;;6.30;;
52534;SDS011;38443;53.164;5.802;2023-05-10T12:45:42;12.60;;;6.80;;
52534;SDS011;38443;53.164;5.802;2023-05-10T12:48:12;7.13;;;4.78;;
52534;SDS011;38443;53.164;5.802;2023-05-10T12:50:38;10.57;;;4.80;;
52534;SDS011;38443;53.164;5.802;2023-05-10T12:53:03;11.00;;;6.72;;
52534;SDS011;38443;53.164;5.802;2023-05-10T12:55:28;9.30;;;6.25;;
52534;SDS011;38443;53.164;5.802;2023-05-10T12:57:54;11.65;;;7.05;;
52534;SDS011;38443;53.164;5.802;2023-05-10T13:00:19;12.45;;;6.82;;
52534;SDS011;38443;53.164;5.802;2023-05-10T13:02:44;17.48;;;7.78;;
52534;SDS011;38443;53.164;5.802;2023-05-10T13:05:10;12.18;;;6.70;;
52534;SDS011;38443;53.164;5.802;2023-05-10T13:07:36;9.68;;;5.55;;
52534;SDS011;38443;53.164;5.802;2023-05-10T13:10:01;10.30;;;5.80;;
52534;SDS011;38443;53.164;5.802;2023-05-10T13:12:26;11.55;;;5.50;;
52534;SDS011;38443;53.164;5.802;2023-05-10T13:14:52;8.40;;;5.05;;
52534;SDS011;38443;53.164;5.802;2023-05-10T13:17:17;10.88;;;6.28;;
52534;SDS011;38443;53.164;5.802;2023-05-10T13:19:42;8.32;;;5.35;;
52534;SDS011;38443;53.164;5.802;2023-05-10T13:22:07;8.15;;;4.95;;
52534;SDS011;38443;53.164;5.802;2023-05-10T13:24:33;7.65;;;4.90;;
52534;SDS011;38443;53.164;5.802;2023-05-10T13:26:58;8.00;;;4.80;;
52534;SDS011;38443;53.164;5.802;2023-05-10T13:29:23;9.20;;;5.72;;
52534;SDS011;38443;53.164;5.802;2023-05-10T13:31:49;11.18;;;5.50;;
52534;SDS011;38443;53.164;5.802;2023-05-10T13:34:14;10.10;;;5.60;;
52534;SDS011;38443;53.164;5.802;2023-05-10T13:36:40;7.68;;;4.13;;
52534;SDS011;38443;53.164;5.802;2023-05-10T13:39:05;7.47;;;4.55;;
52534;SDS011;38443;53.164;5.802;2023-05-10T13:41:30;10.18;;;5.28;;
52534;SDS011;38443;53.164;5.802;2023-05-10T13:43:56;10.65;;;7.00;;
52534;SDS011;38443;53.164;5.802;2023-05-10T13:46:21;10.60;;;6.72;;
52534;SDS011;38443;53.164;5.802;2023-05-10T13:48:46;10.07;;;6.53;;
52534;SDS011;38443;53.164;5.802;2023-05-10T13:51:12;10.32;;;6.50;;
52534;SDS011;38443;53.164;5.802;2023-05-10T13:53:37;9.98;;;5.75;;
52534;SDS011;38443;53.164;5.802;2023-05-10T13:56:03;8.73;;;5.70;;
52534;SDS011;38443;53.164;5.802;2023-05-10T13:58:28;9.57;;;5.75;;
52534;SDS011;38443;53.164;5.802;2023-05-10T14:00:54;9.30;;;6.03;;
52534;SDS011;38443;53.164;5.802;2023-05-10T14:03:19;9.45;;;6.50;;
52534;SDS011;38443;53.164;5.802;2023-05-10T14:05:44;8.82;;;5.60;;
52534;SDS011;38443;53.164;5.802;2023-05-10T14:08:10;8.38;;;5.70;;
52534;SDS011;38443;53.164;5.802;2023-05-10T14:10:35;7.88;;;5.68;;
52534;SDS011;38443;53.164;5.802;2023-05-10T14:13:01;7.15;;;5.20;;
52534;SDS011;38443;53.164;5.802;2023-05-10T14:15:28;8.23;;;4.97;;
52534;SDS011;38443;53.164;5.802;2023-05-10T14:17:53;7.45;;;5.32;;
52534;SDS011;38443;53.164;5.802;2023-05-10T14:20:18;7.68;;;5.28;;
52534;SDS011;38443;53.164;5.802;2023-05-10T14:22:44;7.82;;;5.55;;
52534;SDS011;38443;53.164;5.802;2023-05-10T14:25:09;7.45;;;5.30;;
52534;SDS011;38443;53.164;5.802;2023-05-10T14:27:34;7.38;;;5.55;;
52534;SDS011;38443;53.164;5.802;2023-05-10T14:30:00;6.35;;;4.88;;
52534;SDS011;38443;53.164;5.802;2023-05-10T14:32:25;9.75;;;5.55;;
52534;SDS011;38443;53.164;5.802;2023-05-10T14:34:52;7.30;;;5.32;;
52534;SDS011;38443;53.164;5.802;2023-05-10T14:37:17;7.00;;;5.60;;
52534;SDS011;38443;53.164;5.802;2023-05-10T14:39:42;6.13;;;4.97;;
52534;SDS011;38443;53.164;5.802;2023-05-10T14:42:08;6.65;;;5.18;;
52534;SDS011;38443;53.164;5.802;2023-05-10T14:44:33;7.13;;;5.28;;
52534;SDS011;38443;53.164;5.802;2023-05-10T14:46:59;7.72;;;5.07;;
52534;SDS011;38443;53.164;5.802;2023-05-10T14:49:24;8.15;;;5.72;;
52534;SDS011;38443;53.164;5.802;2023-05-10T14:51:51;8.57;;;6.03;;
52534;SDS011;38443;53.164;5.802;2023-05-10T14:54:16;7.45;;;5.82;;
52534;SDS011;38443;53.164;5.802;2023-05-10T14:56:41;7.93;;;5.65;;
52534;SDS011;38443;53.164;5.802;2023-05-10T14:59:07;9.63;;;6.18;;
52534;SDS011;38443;53.164;5.802;2023-05-10T15:01:33;7.90;;;6.03;;
52534;SDS011;38443;53.164;5.802;2023-05-10T15:04:02;7.20;;;5.55;;
52534;SDS011;38443;53.164;5.802;2023-05-10T15:06:31;8.75;;;6.38;;
52534;SDS011;38443;53.164;5.802;2023-05-10T15:08:57;9.55;;;6.30;;
52534;SDS011;38443;53.164;5.802;2023-05-10T15:11:23;8.93;;;6.25;;
52534;SDS011;38443;53.164;5.802;2023-05-10T15:13:48;9.02;;;5.47;;
52534;SDS011;38443;53.164;5.802;2023-05-10T15:16:13;8.38;;;5.80;;
52534;SDS011;38443;53.164;5.802;2023-05-10T15:18:39;6.80;;;5.35;;
52534;SDS011;38443;53.164;5.802;2023-05-10T15:21:04;8.07;;;5.53;;